Terminal Aerodrome Forecast
Issued by NWS Springfield, MO

Home | Current Version | Previous Version | Text Only | Print | Product List | Glossary On
Versions: 1 2 3 4 5 6 7 8 9 10 11 12 13 14 15 16 17 18 19 20 21 22 23
000
FTUS43 KSGF 010900 AAA
TAFSGF
TAF AMD
KSGF 010903Z 0109/0206 17009KT P6SM VCTS SCT050CB OVC100
      WS020/24035KT
      TEMPO 0109/0112 35020G30KT 4SM TSRA BR SCT020 OVC040CB
     FM011300 18010G18KT P6SM SCT050 BKN200
     FM012000 20014G21KT P6SM BKN250 PROB30 0120/0202 6SM -TSRA
      BKN040CB
     FM020200 18012G20KT P6SM VCTS SCT040CB OVC100=

USA.gov is the U.S. government's official web portal to all federal, state and local government web resources and services.